Time;durP1;ratioP1;P1;durP2;ratioP2;P2;SDS_P1;SDS_P2;PMS_P1;PMS_P2;Temp;Humidity;BMP_temperature;BMP_pressure;BME280_temperature;BME280_humidity;BME280_pressure;Samples;Min_cycle;Max_cycle;Signal;HPM_P1;HPM_P2
2022/04/26 03:38:18;;;;;;;8.88;4.25;;;12.50;99.90;;;;;;4936877;29;20118;-81
2022/04/26 03:40:45;;;;;;;6.67;4.03;;;12.80;99.90;;;;;;4936782;29;20151;-80
2022/04/26 03:43:13;;;;;;;7.32;3.45;;;12.90;99.90;;;;;;4936906;29;20444;-83
2022/04/26 03:45:40;;;;;;;7.25;3.85;;;12.80;99.90;;;;;;4938205;29;20040;-79
2022/04/26 03:48:07;;;;;;;10.52;4.07;;;12.90;99.90;;;;;;4920948;29;20036;-79
2022/04/26 03:50:35;;;;;;;7.75;4.20;;;12.80;99.90;;;;;;4936579;29;20071;-81
2022/04/26 03:53:10;;;;;;;10.82;4.60;;;12.80;99.90;;;;;;4906966;29;20048;-81
2022/04/26 03:55:37;;;;;;;8.60;4.15;;;12.50;99.90;;;;;;4937777;29;20053;-82
2022/04/26 03:58:04;;;;;;;11.77;4.82;;;12.50;99.90;;;;;;4920519;29;20042;-80
2022/04/26 04:00:32;;;;;;;11.00;4.00;;;12.30;99.90;;;;;;4937215;29;20049;-85
2022/04/26 04:03:00;;;;;;;7.80;3.83;;;12.30;99.90;;;;;;4937533;29;20404;-80
2022/04/26 04:05:28;;;;;;;7.30;4.00;;;12.30;99.90;;;;;;4919792;29;20491;-81
2022/04/26 04:07:55;;;;;;;6.55;3.63;;;12.30;99.90;;;;;;4937440;29;20036;-80
2022/04/26 04:10:22;;;;;;;11.60;3.65;;;12.30;99.90;;;;;;4937147;29;20035;-81
2022/04/26 04:12:50;;;;;;;6.70;4.25;;;12.30;99.90;;;;;;4937721;29;20046;-83
2022/04/26 04:15:17;;;;;;;7.00;3.72;;;12.40;99.90;;;;;;4937276;29;20427;-80
2022/04/26 04:17:45;;;;;;;4.55;3.45;;;12.40;99.90;;;;;;4920289;29;20554;-82
2022/04/26 04:20:13;;;;;;;9.95;4.50;;;12.50;99.90;;;;;;4936519;29;20142;-80
2022/04/26 04:22:41;;;;;;;6.25;3.90;;;12.50;99.90;;;;;;4936454;29;20506;-81
2022/04/26 04:25:08;;;;;;;6.57;3.83;;;12.40;99.90;;;;;;4919682;29;20495;-80
2022/04/26 04:27:35;;;;;;;11.45;3.72;;;12.40;99.90;;;;;;4920007;29;20059;-81
2022/04/26 04:30:03;;;;;;;8.73;3.45;;;12.50;99.90;;;;;;4936738;29;20103;-80
2022/04/26 04:32:31;;;;;;;5.78;3.67;;;12.50;99.90;;;;;;4936085;29;20043;-80
2022/04/26 04:34:59;;;;;;;12.25;4.13;;;12.70;99.90;;;;;;4935853;29;20598;-79
2022/04/26 04:37:26;;;;;;;7.72;3.78;;;12.80;99.90;;;;;;4936332;29;20419;-83
2022/04/26 04:39:53;;;;;;;16.65;4.22;;;12.80;99.90;;;;;;4930194;29;20385;-79
2022/04/26 04:42:21;;;;;;;7.95;3.97;;;12.70;99.90;;;;;;4917199;29;20480;-79
2022/04/26 04:44:48;;;;;;;6.65;4.10;;;12.70;99.90;;;;;;4916819;29;20155;-82
2022/04/26 04:47:16;;;;;;;13.32;4.35;;;12.70;99.90;;;;;;4916975;29;20444;-80
2022/04/26 04:49:43;;;;;;;7.25;3.65;;;12.90;99.90;;;;;;4900087;29;20072;-86
2022/04/26 04:52:10;;;;;;;10.50;4.97;;;13.00;99.90;;;;;;4916704;29;20500;-81
2022/04/26 04:54:38;;;;;;;16.15;7.65;;;12.90;99.90;;;;;;4916644;29;20071;-80
2022/04/26 04:57:05;;;;;;;16.30;7.40;;;13.10;99.90;;;;;;4917396;29;20044;-83
2022/04/26 04:59:32;;;;;;;19.30;11.30;;;13.20;99.90;;;;;;4916934;29;20047;-79
2022/04/26 05:02:00;;;;;;;60.95;33.10;;;13.40;99.90;;;;;;4916986;29;20122;-79
2022/04/26 05:04:28;;;;;;;37.60;23.52;;;13.50;99.90;;;;;;4916694;29;20048;-81
2022/04/26 05:06:55;;;;;;;19.10;11.50;;;13.50;99.90;;;;;;4916980;29;20095;-82
2022/04/26 05:09:22;;;;;;;42.33;26.42;;;13.60;99.90;;;;;;4906857;29;20379;-76
2022/04/26 05:11:50;;;;;;;114.65;67.97;;;13.50;99.90;;;;;;4927714;29;20054;-77
2022/04/26 05:14:17;;;;;;;248.23;148.75;;;13.70;99.90;;;;;;4926538;29;20130;-76
2022/04/26 05:16:44;;;;;;;238.68;142.95;;;13.80;99.90;;;;;;4918590;29;20051;-76
2022/04/26 05:19:11;;;;;;;35.22;23.58;;;13.90;99.90;;;;;;4935121;29;20483;-78
2022/04/26 05:21:39;;;;;;;14.60;7.38;;;13.90;99.90;;;;;;4935214;29;20458;-78
2022/04/26 05:26:59;;;;;;;9.73;4.55;;;13.60;99.90;;;;;;4934934;29;20035;-82
2022/04/26 05:29:28;;;;;;;11.38;4.57;;;13.70;99.90;;;;;;4934432;29;20043;-77
2022/04/26 05:31:56;;;;;;;8.43;3.85;;;13.50;99.90;;;;;;4934625;29;20052;-79
2022/04/26 05:34:23;;;;;;;8.15;3.97;;;13.50;99.90;;;;;;4918286;29;20087;-78
2022/04/26 05:36:51;;;;;;;10.05;5.20;;;13.70;99.90;;;;;;4934995;29;20040;-78
2022/04/26 05:39:18;;;;;;;14.98;5.40;;;13.90;99.90;;;;;;4935124;29;20427;-79
2022/04/26 05:41:45;;;;;;;10.95;4.72;;;14.00;99.90;;;;;;4916710;29;20043;-79
2022/04/26 05:44:13;;;;;;;7.68;3.70;;;14.10;99.90;;;;;;4915615;29;20095;-77
2022/04/26 05:46:40;;;;;;;9.82;4.18;;;14.20;99.90;;;;;;4915815;29;20131;-80
2022/04/26 05:49:07;;;;;;;10.77;4.78;;;14.20;99.90;;;;;;4915324;29;20040;-81
2022/04/26 05:51:34;;;;;;;13.32;4.90;;;14.30;99.90;;;;;;4915589;29;20433;-78
2022/04/26 05:54:02;;;;;;;8.38;4.38;;;14.50;99.90;;;;;;4915868;29;20036;-78
2022/04/26 05:56:29;;;;;;;9.27;4.05;;;14.50;99.90;;;;;;4916154;29;20111;-80
2022/04/26 05:58:56;;;;;;;7.90;4.38;;;14.40;99.90;;;;;;4918478;29;20513;-84
2022/04/26 06:01:24;;;;;;;14.70;6.88;;;14.40;99.90;;;;;;4903072;29;20139;-75
2022/04/26 06:03:51;;;;;;;9.45;5.53;;;14.40;99.90;;;;;;4919589;29;20040;-80
2022/04/26 06:06:19;;;;;;;11.05;4.82;;;14.50;99.90;;;;;;4919720;29;20499;-79
2022/04/26 06:08:46;;;;;;;8.23;4.68;;;14.60;99.90;;;;;;4919400;29;20044;-80
2022/04/26 06:11:15;;;;;;;9.52;3.85;;;14.70;99.90;;;;;;4919075;29;20119;-79
2022/04/26 06:13:43;;;;;;;9.13;4.05;;;14.60;99.90;;;;;;4918818;29;20051;-81
2022/04/26 06:16:10;;;;;;;9.02;4.30;;;14.70;99.90;;;;;;4918156;29;20054;-81
2022/04/26 06:18:37;;;;;;;10.30;4.47;;;14.90;99.90;;;;;;4919106;29;20048;-80
2022/04/26 06:21:05;;;;;;;8.77;4.05;;;14.80;99.90;;;;;;4919177;29;20099;-80
2022/04/26 06:23:32;;;;;;;13.90;4.40;;;14.80;99.90;;;;;;4919030;29;20071;-81
2022/04/26 06:26:00;;;;;;;11.85;4.50;;;15.00;99.90;;;;;;4918671;29;20067;-81
2022/04/26 06:28:28;;;;;;;9.48;4.68;;;15.10;99.90;;;;;;4901773;29;20033;-81
2022/04/26 06:30:56;;;;;;;8.15;4.30;;;15.10;99.90;;;;;;4918646;29;20060;-81
2022/04/26 06:33:23;;;;;;;8.15;4.07;;;15.20;99.90;;;;;;4918602;29;20051;-81
2022/04/26 06:35:51;;;;;;;13.60;4.13;;;15.30;99.90;;;;;;4918341;29;20119;-81
2022/04/26 06:38:19;;;;;;;10.68;4.72;;;15.40;99.90;;;;;;4918859;29;20103;-81
2022/04/26 06:40:46;;;;;;;14.13;4.68;;;15.40;99.90;;;;;;4911100;29;20063;-80
2022/04/26 06:43:14;;;;;;;9.80;4.00;;;15.40;99.90;;;;;;4937637;29;20391;-80
2022/04/26 06:45:44;;;;;;;9.07;3.75;;;15.30;99.90;;;;;;4937655;29;20384;-81
2022/04/26 06:48:12;;;;;;;7.78;3.80;;;15.20;99.90;;;;;;4920858;29;20055;-81
2022/04/26 06:50:40;;;;;;;10.60;3.95;;;15.30;99.90;;;;;;4938310;29;20512;-80
2022/04/26 06:53:08;;;;;;;8.63;3.58;;;15.50;99.90;;;;;;4937614;29;20435;-82
2022/04/26 06:55:35;;;;;;;8.82;3.80;;;15.50;99.90;;;;;;4937687;29;20119;-81
2022/04/26 06:58:03;;;;;;;7.43;3.95;;;15.70;99.90;;;;;;4938092;29;20111;-81
2022/04/26 07:00:31;;;;;;;13.48;3.85;;;15.80;99.90;;;;;;4937393;29;20039;-78
2022/04/26 07:02:58;;;;;;;17.92;3.63;;;15.80;99.90;;;;;;4937692;29;20039;-79
2022/04/26 07:05:26;;;;;;;13.20;3.70;;;15.90;99.90;;;;;;4904317;29;20047;-81
2022/04/26 07:07:53;;;;;;;10.43;3.67;;;16.00;99.70;;;;;;4937424;29;20119;-79
2022/04/26 07:10:22;;;;;;;11.15;3.40;;;16.00;99.60;;;;;;4936202;29;20499;-81
2022/04/26 07:12:49;;;;;;;10.20;3.58;;;16.20;99.50;;;;;;4920578;29;20075;-77
2022/04/26 07:15:16;;;;;;;12.90;4.20;;;16.20;98.30;;;;;;4937001;29;20071;-80
2022/04/26 07:17:44;;;;;;;8.23;4.28;;;16.20;98.20;;;;;;4937263;29;20036;-78
2022/04/26 07:20:13;;;;;;;10.30;3.67;;;16.20;98.30;;;;;;4937019;29;20047;-81
2022/04/26 07:22:40;;;;;;;12.10;3.47;;;16.20;99.20;;;;;;4937180;29;20039;-80
2022/04/26 07:25:09;;;;;;;11.73;3.65;;;16.30;98.70;;;;;;4936776;29;20391;-81
2022/04/26 07:27:37;;;;;;;7.20;3.75;;;16.30;98.30;;;;;;4920068;29;20135;-81
2022/04/26 07:30:05;;;;;;;6.28;3.30;;;16.40;98.50;;;;;;4937192;29;20036;-81
2022/04/26 07:35:18;;;;;;;7.90;3.67;;;16.80;97.60;;;;;;4936714;29;20067;-79
2022/04/26 07:37:45;;;;;;;10.18;3.70;;;16.80;97.70;;;;;;4936437;29;20118;-81
2022/04/26 07:40:13;;;;;;;10.02;3.80;;;16.90;97.50;;;;;;4933536;29;20052;-81
2022/04/26 07:42:40;;;;;;;10.90;4.30;;;17.00;97.80;;;;;;4917898;29;20040;-80
2022/04/26 07:45:09;;;;;;;6.28;3.33;;;17.10;96.50;;;;;;4917526;29;20044;-82
2022/04/26 07:47:37;;;;;;;9.32;3.13;;;17.20;96.60;;;;;;4917316;29;20412;-81
2022/04/26 07:50:05;;;;;;;13.18;4.03;;;17.40;96.60;;;;;;4917356;29;20040;-79
2022/04/26 07:52:32;;;;;;;7.82;3.30;;;17.40;95.50;;;;;;4917208;29;20507;-82
2022/04/26 07:55:00;;;;;;;7.78;3.38;;;17.50;95.30;;;;;;4900709;29;20484;-82
2022/04/26 07:57:27;;;;;;;6.35;2.97;;;17.40;94.20;;;;;;4917129;29;20044;-80
2022/04/26 07:59:54;;;;;;;7.80;3.40;;;17.50;94.10;;;;;;4917020;29;20044;-82
2022/04/26 08:02:22;;;;;;;8.48;3.92;;;17.60;93.70;;;;;;4917299;29;20095;-79
2022/04/26 08:04:50;;;;;;;16.08;4.32;;;17.70;93.20;;;;;;4917315;29;20449;-80
2022/04/26 08:07:17;;;;;;;8.02;2.60;;;17.80;93.00;;;;;;4917454;29;20134;-80
2022/04/26 08:09:44;;;;;;;7.13;2.83;;;17.90;93.00;;;;;;4917075;29;20039;-80
2022/04/26 08:12:12;;;;;;;7.97;3.30;;;18.00;92.10;;;;;;4917084;29;20544;-81
2022/04/26 08:14:39;;;;;;;5.80;2.78;;;18.10;91.40;;;;;;4915496;29;20135;-76
2022/04/26 08:17:06;;;;;;;9.15;3.10;;;18.10;90.40;;;;;;4924536;29;20043;-79
2022/04/26 08:19:34;;;;;;;11.95;2.65;;;18.20;90.50;;;;;;4935453;29;20035;-79
2022/04/26 08:22:03;;;;;;;10.80;3.42;;;18.30;89.50;;;;;;4935410;29;20495;-76
2022/04/26 08:27:25;;;;;;;10.27;2.70;;;18.50;86.60;;;;;;4935803;29;20436;-79
2022/04/26 08:30:00;;;;;;;6.97;2.42;;;18.60;86.40;;;;;;4919010;29;20384;-76
2022/04/26 08:32:36;;;;;;;11.35;3.33;;;18.70;84.60;;;;;;4935779;29;20154;-77
2022/04/26 08:35:06;;;;;;;5.50;2.33;;;18.80;85.90;;;;;;4935654;29;20471;-80
2022/04/26 08:37:35;;;;;;;8.77;3.38;;;19.00;84.80;;;;;;4935757;29;20047;-79
2022/04/26 08:40:05;;;;;;;13.52;5.07;;;19.20;83.40;;;;;;4935407;29;20454;-76
2022/04/26 08:42:46;;;;;;;10.05;5.78;;;19.20;82.40;;;;;;4916828;29;20381;-80
2022/04/26 08:45:16;;;;;;;5.65;2.80;;;19.30;81.30;;;;;;4916484;29;20040;-78
2022/04/26 08:53:18;;;;;;;13.85;3.08;;;19.90;81.50;;;;;;4916195;29;20048;-80
2022/04/26 08:55:48;;;;;;;8.93;4.70;;;20.00;80.70;;;;;;4916533;29;20044;-79
2022/04/26 08:58:18;;;;;;;5.20;2.60;;;20.00;78.00;;;;;;4916484;29;20365;-79
2022/04/26 09:01:04;;;;;;;3.47;1.65;;;20.10;78.50;;;;;;4899404;29;20500;-82
2022/04/26 09:03:56;;;;;;;5.70;2.70;;;20.30;75.60;;;;;;4915988;29;20190;-81
2022/04/26 09:06:40;;;;;;;3.92;1.70;;;20.40;72.70;;;;;;4916484;29;20387;-76
2022/04/26 09:09:13;;;;;;;5.07;1.75;;;20.30;72.30;;;;;;4916161;29;20063;-81
2022/04/26 09:11:42;;;;;;;4.93;1.70;;;20.40;72.70;;;;;;4915404;29;20087;-76
2022/04/26 09:14:32;;;;;;;5.30;2.55;;;20.50;73.00;;;;;;4916137;29;20035;-78
2022/04/26 09:17:16;;;;;;;4.85;1.60;;;20.80;71.30;;;;;;4915980;29;20119;-77
2022/04/26 09:19:54;;;;;;;6.07;2.92;;;20.60;70.30;;;;;;4916339;29;20492;-78
2022/04/26 09:22:26;;;;;;;3.20;1.75;;;20.60;70.90;;;;;;4915878;29;20115;-79
2022/04/26 09:24:54;;;;;;;;;;;20.80;70.90;;;;;;4916495;29;20036;-79
2022/04/26 09:27:22;;;;;;;6.07;1.80;;;20.80;68.90;;;;;;4916245;29;19967;-79
2022/04/26 09:29:49;;;;;;;6.68;2.10;;;20.80;69.30;;;;;;4899300;29;20046;-78
2022/04/26 09:32:18;;;;;;;4.75;2.13;;;20.90;69.20;;;;;;4914900;29;20143;-79
2022/04/26 09:34:46;;;;;;;4.05;1.60;;;20.90;69.80;;;;;;4915889;29;20036;-77
2022/04/26 09:37:13;;;;;;;7.68;1.90;;;21.10;69.40;;;;;;4883512;29;20044;-79
2022/04/26 09:40:02;;;;;;;4.90;2.20;;;21.20;70.10;;;;;;4915954;29;20060;-78
2022/04/26 09:42:36;;;;;;;;;;;21.10;69.80;;;;;;4933484;29;20360;-78
2022/04/26 09:45:14;;;;;;;9.45;2.22;;;21.20;68.10;;;;;;4934365;29;19925;-78
2022/04/26 09:47:42;;;;;;;5.25;1.98;;;21.30;68.50;;;;;;4934884;29;20043;-79
2022/04/26 09:50:36;;;;;;;9.02;2.40;;;21.60;69.30;;;;;;4935098;29;20445;-81
2022/04/26 09:53:06;;;;;;;26.33;3.53;;;21.80;67.40;;;;;;4924221;29;20454;-79
2022/04/26 09:55:38;;;;;;;6.10;1.80;;;21.90;67.20;;;;;;4918631;29;20642;-82
2022/04/26 09:58:09;;;;;;;7.88;2.13;;;21.90;66.60;;;;;;4934965;29;20048;-81
2022/04/26 10:00:39;;;;;;;9.32;1.80;;;22.00;69.30;;;;;;4934256;29;20048;-80
2022/04/26 10:03:14;;;;;;;7.25;2.22;;;22.20;66.60;;;;;;4934334;29;20511;-81
2022/04/26 10:05:45;;;;;;;5.50;1.92;;;22.40;67.90;;;;;;4917979;29;20042;-82
2022/04/26 10:08:25;;;;;;;3.92;1.70;;;22.40;66.40;;;;;;4934404;29;20111;-83
2022/04/26 10:10:54;;;;;;;5.85;1.90;;;22.60;66.70;;;;;;4917505;29;20147;-80
2022/04/26 10:13:39;;;;;;;5.07;2.13;;;22.50;64.50;;;;;;4934291;29;20369;-79
2022/04/26 10:16:09;;;;;;;6.72;1.90;;;22.60;64.50;;;;;;4918102;29;20051;-77
2022/04/26 10:18:44;;;;;;;6.80;2.05;;;22.70;64.30;;;;;;4934232;29;20040;-77
2022/04/26 10:21:22;;;;;;;7.93;1.65;;;22.70;63.10;;;;;;4934051;29;20046;-79
2022/04/26 10:24:11;;;;;;;9.10;2.13;;;22.70;62.20;;;;;;4934309;29;20044;-79
2022/04/26 10:26:39;;;;;;;4.55;1.73;;;22.50;62.80;;;;;;4901729;29;20138;-79
2022/04/26 10:29:09;;;;;;;9.15;1.75;;;22.70;62.80;;;;;;4916999;29;20054;-80
2022/04/26 10:31:42;;;;;;;5.50;1.80;;;22.80;62.10;;;;;;4934158;29;20095;-81
2022/04/26 10:34:31;;;;;;;4.20;1.90;;;22.90;62.10;;;;;;4902285;29;20044;-80
2022/04/26 10:37:12;;;;;;;6.07;1.60;;;23.00;61.00;;;;;;4934382;29;20063;-79
2022/04/26 10:39:49;;;;;;;9.10;2.00;;;23.20;61.40;;;;;;4901635;29;20052;-81
2022/04/26 10:42:18;;;;;;;8.82;2.08;;;23.20;62.00;;;;;;4904226;29;20040;-82
2022/04/26 10:44:47;;;;;;;8.33;2.10;;;23.40;61.20;;;;;;4901986;29;20452;-81
2022/04/26 10:47:20;;;;;;;10.25;2.17;;;23.60;62.40;;;;;;4901704;29;20290;-81
2022/04/26 10:49:51;;;;;;;6.40;2.15;;;23.70;62.40;;;;;;4917892;29;20048;-77
2022/04/26 10:52:19;;;;;;;4.03;1.63;;;23.80;62.90;;;;;;4904260;29;20080;-80
2022/04/26 10:54:58;;;;;;;7.90;1.65;;;24.00;62.60;;;;;;4925565;29;20036;-80
2022/04/26 10:57:35;;;;;;;6.72;1.70;;;23.90;59.30;;;;;;4909452;29;20064;-82
2022/04/26 11:00:02;;;;;;;6.47;2.03;;;23.80;60.10;;;;;;4925515;29;20039;-81
2022/04/26 11:02:40;;;;;;;7.80;1.80;;;23.90;61.80;;;;;;4917423;29;20369;-81
2022/04/26 11:05:16;;;;;;;5.85;1.92;;;24.00;59.90;;;;;;4916785;29;20088;-79
2022/04/26 11:07:48;;;;;;;6.20;1.50;;;23.90;58.80;;;;;;4900312;29;20103;-80
2022/04/26 11:10:24;;;;;;;4.68;1.70;;;24.10;60.00;;;;;;4916821;29;20405;-81
2022/04/26 11:12:55;;;;;;;7.28;2.55;;;24.10;60.80;;;;;;4920713;29;20123;-81
2022/04/26 11:15:26;;;;;;;6.97;1.67;;;24.20;61.90;;;;;;4909112;29;20028;-79
2022/04/26 11:17:55;;;;;;;5.32;1.80;;;24.30;59.30;;;;;;4908635;29;20036;-80
2022/04/26 11:20:24;;;;;;;6.82;1.60;;;24.30;58.90;;;;;;4917221;29;20518;-80
2022/04/26 11:22:56;;;;;;;7.63;2.45;;;24.50;59.60;;;;;;4916696;29;20036;-78
2022/04/26 11:28:17;;;;;;;6.57;1.80;;;24.60;59.20;;;;;;4916950;29;20040;-83
2022/04/26 11:30:54;;;;;;;8.30;2.00;;;24.70;56.30;;;;;;4917625;29;20443;-82
2022/04/26 11:33:23;;;;;;;15.05;2.33;;;24.60;56.60;;;;;;4900432;29;20551;-84
2022/04/26 11:36:04;;;;;;;4.47;1.75;;;24.30;57.20;;;;;;4917071;29;20040;-81
2022/04/26 11:38:35;;;;;;;4.35;1.90;;;24.40;55.60;;;;;;4900517;29;20040;-79
2022/04/26 11:41:04;;;;;;;5.72;1.52;;;24.70;55.50;;;;;;4917695;29;20149;-78
2022/04/26 11:43:37;;;;;;;8.27;1.48;;;24.80;55.00;;;;;;4917491;29;20068;-79
2022/04/26 11:49:46;;;;;;;7.72;2.03;;;25.00;55.20;;;;;;4844791;29;20056;-83
2022/04/26 11:52:24;;;;;;;4.72;1.88;;;25.10;54.90;;;;;;4935207;29;20059;-82
2022/04/26 11:54:54;;;;;;;8.85;2.28;;;25.20;55.70;;;;;;4919036;29;20078;-81
2022/04/26 11:57:24;;;;;;;8.02;2.08;;;25.30;55.30;;;;;;4904337;29;20043;-82
2022/04/26 11:59:52;;;;;;;8.13;2.08;;;25.40;54.90;;;;;;4936238;29;20380;-82
2022/04/26 12:02:20;;;;;;;6.75;2.10;;;25.50;55.40;;;;;;4919602;29;20039;-81
2022/04/26 12:04:49;;;;;;;14.77;3.45;;;25.80;56.40;;;;;;4936005;29;20048;-80
2022/04/26 12:07:18;;;;;;;10.15;2.45;;;25.70;54.40;;;;;;4936240;29;20063;-82
2022/04/26 12:09:45;;;;;;;5.95;1.98;;;25.60;54.50;;;;;;4918592;29;20044;-83
2022/04/26 12:12:14;;;;;;;4.18;1.50;;;25.60;52.70;;;;;;4919577;29;20052;-83
2022/04/26 12:14:42;;;;;;;6.22;1.50;;;25.60;52.70;;;;;;4935225;29;20040;-81
2022/04/26 12:17:29;;;;;;;6.20;1.83;;;25.30;52.60;;;;;;4918782;29;20447;-83
2022/04/26 12:20:08;;;;;;;10.45;2.30;;;25.50;52.80;;;;;;4903013;29;20058;-79
2022/04/26 12:22:38;;;;;;;3.38;1.08;;;25.90;52.30;;;;;;4919012;29;20391;-81
2022/04/26 12:25:13;;;;;;;;;;;26.20;52.10;;;;;;4919013;29;20048;-78
2022/04/26 12:27:41;;;;;;;10.95;2.00;;;26.10;51.90;;;;;;4935540;29;20017;-80
2022/04/26 12:30:10;;;;;;;6.05;1.70;;;26.10;51.50;;;;;;4935126;29;20364;-80
2022/04/26 12:32:44;;;;;;;5.10;1.58;;;26.20;51.70;;;;;;4935284;29;20118;-80
2022/04/26 12:35:11;;;;;;;6.90;1.83;;;26.50;53.00;;;;;;4935629;29;20046;-80
2022/04/26 12:37:40;;;;;;;4.85;1.85;;;26.90;52.90;;;;;;4918438;29;20043;-80
2022/04/26 12:40:10;;;;;;;11.50;1.83;;;26.90;51.30;;;;;;4934938;29;20483;-81
2022/04/26 12:42:40;;;;;;;3.55;1.40;;;26.90;50.50;;;;;;4926536;29;20100;-82
2022/04/26 12:45:22;;;;;;;;;;;27.00;49.70;;;;;;4924323;29;20484;-82
2022/04/26 12:51:17;;;;;;;3.10;1.30;;;26.80;48.80;;;;;;4927362;29;20114;-80
2022/04/26 12:53:49;;;;;;;4.43;1.60;;;26.90;49.70;;;;;;4918855;29;20063;-83
2022/04/26 12:56:17;;;;;;;5.05;1.50;;;26.70;49.20;;;;;;4935295;29;20042;-82
2022/04/26 12:58:52;;;;;;;4.30;1.50;;;26.80;48.90;;;;;;4935649;29;20110;-84
2022/04/26 13:01:20;;;;;;;4.68;1.38;;;27.30;50.00;;;;;;4935165;29;20079;-81
2022/04/26 13:03:59;;;;;;;8.02;1.40;;;27.10;49.90;;;;;;4934719;29;20047;-82
2022/04/26 13:06:27;;;;;;;8.57;1.40;;;27.20;50.00;;;;;;4918454;29;20051;-83
2022/04/26 13:09:15;;;;;;;5.93;1.73;;;27.30;49.80;;;;;;4934747;29;20183;-84
2022/04/26 13:11:43;;;;;;;6.57;1.85;;;27.30;51.00;;;;;;4918226;29;20046;-84
2022/04/26 13:14:11;;;;;;;4.55;1.88;;;27.20;50.60;;;;;;4927002;29;20058;-81
2022/04/26 13:16:58;;;;;;;2.83;1.42;;;27.60;49.80;;;;;;4924263;28;20059;-83
2022/04/26 13:19:26;;;;;;;3.13;1.77;;;27.70;49.60;;;;;;4924961;29;20042;-82
2022/04/26 13:21:53;;;;;;;4.50;1.35;;;27.40;48.80;;;;;;4909096;29;20055;-82
2022/04/26 13:24:28;;;;;;;5.78;1.80;;;27.60;49.10;;;;;;4923949;29;20046;-81
2022/04/26 13:27:18;;;;;;;4.70;1.80;;;28.20;48.90;;;;;;4909772;29;20102;-81
2022/04/26 13:29:50;;;;;;;7.15;1.92;;;28.10;48.70;;;;;;4914637;29;20135;-85
2022/04/26 13:32:34;;;;;;;6.38;1.42;;;28.30;48.60;;;;;;4914451;29;20070;-82
2022/04/26 13:35:05;;;;;;;3.95;1.45;;;27.90;49.30;;;;;;4898634;29;20036;-83
2022/04/26 13:37:32;;;;;;;10.60;1.58;;;28.10;50.00;;;;;;4916133;29;20112;-82
2022/04/26 13:40:01;;;;;;;5.03;1.50;;;28.20;49.80;;;;;;4915407;29;20091;-81
2022/04/26 13:42:31;;;;;;;5.60;1.40;;;28.20;50.00;;;;;;4924967;29;20416;-83
2022/04/26 13:44:59;;;;;;;5.03;1.40;;;29.50;49.50;;;;;;4898542;29;20433;-81
2022/04/26 13:47:26;;;;;;;3.88;1.52;;;30.90;47.00;;;;;;4915617;29;20416;-82
2022/04/26 13:49:57;;;;;;;4.25;1.90;;;32.40;45.00;;;;;;4915789;29;20068;-82
2022/04/26 13:56:30;;;;;;;2.88;1.25;;;33.10;43.10;;;;;;4923942;29;20023;-82
2022/04/26 13:58:59;;;;;;;6.20;1.50;;;32.70;42.50;;;;;;4922947;29;21067;-83
2022/04/26 14:01:29;;;;;;;5.55;1.40;;;32.90;42.20;;;;;;4908757;29;20051;-82
2022/04/26 14:04:34;;;;;;;4.28;1.85;;;32.30;42.30;;;;;;4909504;29;20395;-83
2022/04/26 14:07:04;;;;;;;5.07;1.27;;;32.10;43.00;;;;;;4917899;29;20416;-83
2022/04/26 14:09:32;;;;;;;5.68;1.95;;;32.50;41.80;;;;;;4898171;29;20036;-82
2022/04/26 14:12:03;;;;;;;2.65;1.02;;;32.70;42.10;;;;;;4915275;29;20688;-82
2022/04/26 14:22:52;;;;;;;6.68;1.50;;;31.30;42.70;;;;;;4918978;29;20480;-80
2022/04/26 14:25:22;;;;;;;7.60;2.65;;;31.30;43.00;;;;;;4918306;29;20403;-78
2022/04/26 14:27:53;;;;;;;3.45;1.15;;;31.90;42.30;;;;;;4918407;29;20373;-78
2022/04/26 14:30:29;;;;;;;5.65;1.40;;;32.30;41.60;;;;;;4916982;29;20414;-80
2022/04/26 14:33:15;;;;;;;6.57;1.40;;;32.00;41.60;;;;;;4921761;29;20099;-80
2022/04/26 14:39:55;;;;;;;5.80;1.98;;;33.00;40.40;;;;;;4870602;29;20053;-79
2022/04/26 14:43:01;;;;;;;6.68;2.10;;;32.90;40.60;;;;;;4878201;29;20053;-77
2022/04/26 14:45:44;;;;;;;12.77;3.28;;;32.50;39.90;;;;;;4863322;29;20045;-76
2022/04/26 14:48:19;;;;;;;4.57;3.38;;;33.40;39.80;;;;;;4913860;29;20471;-79
2022/04/26 14:50:55;;;;;;;6.30;3.75;;;33.30;39.00;;;;;;4918772;29;20433;-79
2022/04/26 14:53:43;;;;;;;5.03;3.90;;;33.20;38.90;;;;;;4903819;29;20062;-78
2022/04/26 14:56:10;;;;;;;6.63;3.90;;;33.00;39.60;;;;;;4920261;29;20047;-78
2022/04/26 14:59:01;;;;;;;6.22;3.38;;;32.50;40.30;;;;;;4956345;29;20050;-80
2022/04/26 15:01:34;;;;;;;;;;;32.70;40.30;;;;;;4956951;29;20051;-80
2022/04/26 15:04:02;;;;;;;4.50;3.60;;;32.40;40.20;;;;;;4956183;29;19923;-79
2022/04/26 15:06:30;;;;;;;7.32;4.50;;;32.90;40.20;;;;;;4942145;29;20055;-78
2022/04/26 15:11:43;;;;;;;6.70;3.97;;;32.90;39.40;;;;;;4926463;29;19923;-78
2022/04/26 15:16:56;;;;;;;4.63;2.90;;;32.30;38.90;;;;;;4916310;29;20099;-78
2022/04/26 15:19:24;;;;;;;4.70;3.05;;;32.00;39.70;;;;;;4922729;29;20409;-81
2022/04/26 15:21:59;;;;;;;5.13;2.75;;;31.90;40.50;;;;;;4911601;29;20032;-80
2022/04/26 15:24:26;;;;;;;5.35;2.20;;;31.30;40.70;;;;;;4926892;29;20368;-77
2022/04/26 15:26:56;;;;;;;;;;;31.70;40.40;;;;;;4927140;29;20046;-79
2022/04/26 15:29:23;;;;;;;5.28;2.28;;;31.60;39.70;;;;;;4921375;29;19930;-79
2022/04/26 15:31:51;;;;;;;6.75;2.00;;;31.20;40.50;;;;;;4925633;29;20043;-81
2022/04/26 15:34:18;;;;;;;3.45;1.70;;;30.90;39.50;;;;;;4911053;29;20114;-80
2022/04/26 15:36:46;;;;;;;2.60;1.42;;;31.50;40.40;;;;;;4912699;29;20063;-80
2022/04/26 15:39:13;;;;;;;3.00;1.30;;;31.30;40.00;;;;;;4924777;29;20051;-80
2022/04/26 15:41:40;;;;;;;3.13;1.10;;;31.10;40.30;;;;;;4925327;29;20048;-79
2022/04/26 15:44:08;;;;;;;4.20;1.60;;;30.90;40.20;;;;;;4927025;29;20111;-78
2022/04/26 15:46:41;;;;;;;6.00;1.40;;;30.80;40.80;;;;;;4917502;29;20455;-80
2022/04/26 15:49:10;;;;;;;4.68;1.13;;;30.40;40.80;;;;;;4917126;29;20048;-79
2022/04/26 15:51:41;;;;;;;4.82;1.30;;;30.40;41.20;;;;;;4916871;29;20040;-82
2022/04/26 15:54:08;;;;;;;4.63;1.58;;;30.50;40.70;;;;;;4900230;29;20083;-79
2022/04/26 15:56:39;;;;;;;4.15;1.27;;;30.50;42.10;;;;;;4928299;29;20043;-77
2022/04/26 15:59:33;;;;;;;4.15;1.30;;;30.30;41.40;;;;;;4938887;29;20047;-77
2022/04/26 16:02:01;;;;;;;3.72;1.33;;;30.30;41.70;;;;;;4952061;29;20067;-78
2022/04/26 16:04:28;;;;;;;3.42;1.02;;;30.30;41.40;;;;;;4954933;29;20121;-76
2022/04/26 16:06:58;;;;;;;4.47;1.27;;;30.30;41.00;;;;;;4955472;29;20047;-79
2022/04/26 16:20:34;;;;;;;55.33;45.25;;;28.10;44.00;;;;;;4954393;29;20098;-76
2022/04/26 16:23:08;;;;;;;28.80;18.60;;;28.20;42.90;;;;;;4954798;29;20561;-75
2022/04/26 16:26:03;;;;;;;112.68;93.03;;;27.90;42.90;;;;;;4954379;29;20047;-75
2022/04/26 16:28:34;;;;;;;76.80;67.57;;;28.50;43.80;;;;;;4927053;29;20054;-71
2022/04/26 16:31:16;;;;;;;8.52;3.80;;;28.50;42.60;;;;;;4924564;29;20044;-74
2022/04/26 16:34:02;;;;;;;4.75;2.05;;;28.10;42.30;;;;;;4885427;29;20048;-75
2022/04/26 16:36:36;;;;;;;9.63;2.78;;;27.50;43.30;;;;;;4907903;29;20135;-79
2022/04/26 16:39:06;;;;;;;5.30;1.95;;;27.10;44.00;;;;;;4923373;29;20097;-75
2022/04/26 16:41:43;;;;;;;6.63;1.95;;;26.90;43.60;;;;;;4922144;29;20084;-74
2022/04/26 16:44:18;;;;;;;7.70;2.20;;;26.50;44.00;;;;;;4924741;29;20055;-77
2022/04/26 16:46:45;;;;;;;5.10;2.03;;;26.40;44.40;;;;;;4919577;29;20444;-76
2022/04/26 16:49:13;;;;;;;7.75;2.83;;;26.40;44.90;;;;;;4898278;29;20044;-78
2022/04/26 16:51:43;;;;;;;6.78;2.15;;;26.30;45.50;;;;;;4915317;29;20111;-77
2022/04/26 16:54:12;;;;;;;4.65;1.50;;;26.10;45.60;;;;;;4915933;29;20515;-74
2022/04/26 16:56:44;;;;;;;12.82;7.97;;;25.80;45.40;;;;;;4918813;29;20048;-76
2022/04/26 16:59:17;;;;;;;20.38;12.65;;;25.80;45.90;;;;;;4915969;29;20067;-77
2022/04/26 17:01:45;;;;;;;8.65;4.72;;;25.80;46.60;;;;;;4916107;29;20123;-77
2022/04/26 17:04:12;;;;;;;5.07;2.00;;;25.70;47.10;;;;;;4917922;29;20052;-78
2022/04/26 17:06:41;;;;;;;6.30;1.90;;;25.50;47.60;;;;;;4915834;29;20048;-78
2022/04/26 17:09:09;;;;;;;5.20;2.00;;;25.20;48.30;;;;;;4900245;29;20048;-79
2022/04/26 17:11:42;;;;;;;4.65;1.98;;;25.10;48.40;;;;;;4923096;29;20108;-77
2022/04/26 17:14:16;;;;;;;4.40;2.00;;;25.00;48.50;;;;;;4929546;29;20054;-78
2022/04/26 17:16:46;;;;;;;7.15;2.05;;;24.70;49.20;;;;;;4917763;29;20418;-76
2022/04/26 17:19:23;;;;;;;3.55;2.00;;;24.50;49.50;;;;;;4934171;29;20047;-78
2022/04/26 17:21:51;;;;;;;6.47;2.30;;;24.30;49.80;;;;;;4934844;29;20056;-79
2022/04/26 17:27:21;;;;;;;6.18;3.15;;;24.10;50.60;;;;;;4934967;29;20043;-82
2022/04/26 17:29:49;;;;;;;3.97;2.00;;;23.90;51.10;;;;;;4934294;29;20055;-76
2022/04/26 17:32:26;;;;;;;7.05;2.50;;;23.90;51.10;;;;;;4934709;29;20043;-77
2022/04/26 17:34:53;;;;;;;;;;;24.00;51.30;;;;;;4934710;29;20119;-77
2022/04/26 17:37:26;;;;;;;6.60;2.05;;;23.90;51.40;;;;;;4934723;29;19922;-77
2022/04/26 17:39:53;;;;;;;5.45;2.55;;;23.70;51.50;;;;;;4928942;29;20070;-77
2022/04/26 17:42:24;;;;;;;8.13;2.72;;;23.60;51.80;;;;;;4903123;29;20040;-78